EJA287 KTEB-KILG
Flight info
| Callsign | EJA287 |
|---|---|
| Flight time | 0h 30m |
| Altitude | 16000 |
| Route | SBJ T430 BOPLY BUSKY HIKES/N0399F150 T447 PTW/N0393F140 T447 APEER/N0388F130 T447 CHAZR |
| Aircraft | C700/M-SBDGHM1RWXY/LB2 |
Departure
| Time | 2026-05-08 18:40 |
|---|---|
| Airport | Teterboro Airport (KTEB) |
Arrival
| Time | 2026-05-08 19:10 |
|---|---|
| Airport | Wilmington Airport (KILG) |
| Time | Latitude | Longitude | Altitude | Speed | Heading |
|---|---|---|---|---|---|
| 2026-05-08 18:20 | 40.84534 | -74.06564 | 11 ft | 0 kts | 227° |
| 2026-05-08 18:30 | 40.84537 | -74.06559 | 11 ft | 3 kts | 227° |
| 2026-05-08 18:30 | 40.84547 | -74.06536 | 11 ft | 3 kts | 271° |
| 2026-05-08 18:30 | 40.84547 | -74.06530 | 11 ft | 0 kts | 283° |
| 2026-05-08 18:32 | 40.84547 | -74.06531 | 11 ft | 1 kts | 284° |
| 2026-05-08 18:32 | 40.84559 | -74.06544 | 11 ft | 6 kts | 329° |
| 2026-05-08 18:32 | 40.84600 | -74.06589 | 11 ft | 7 kts | 315° |
| 2026-05-08 18:33 | 40.84647 | -74.06646 | 11 ft | 6 kts | 322° |
| 2026-05-08 18:33 | 40.84680 | -74.06684 | 12 ft | 4 kts | 318° |
| 2026-05-08 18:33 | 40.84688 | -74.06694 | 12 ft | 0 kts | 317° |
| 2026-05-08 18:34 | 40.84708 | -74.06714 | 12 ft | 7 kts | 334° |
| 2026-05-08 18:34 | 40.84759 | -74.06686 | 12 ft | 10 kts | 48° |
| 2026-05-08 18:35 | 40.84825 | -74.06590 | 14 ft | 6 kts | 49° |
| 2026-05-08 18:35 | 40.84847 | -74.06557 | 15 ft | 8 kts | 49° |
| 2026-05-08 18:35 | 40.84894 | -74.06487 | 14 ft | 12 kts | 49° |
| 2026-05-08 18:35 | 40.84991 | -74.06350 | 14 ft | 17 kts | 50° |
| 2026-05-08 18:36 | 40.85034 | -74.06285 | 14 ft | 15 kts | 44° |
| 2026-05-08 18:36 | 40.85099 | -74.06186 | 11 ft | 10 kts | 47° |
| 2026-05-08 18:36 | 40.85155 | -74.06106 | 10 ft | 10 kts | 48° |
| 2026-05-08 18:36 | 40.85200 | -74.06040 | 10 ft | 11 kts | 48° |
| 2026-05-08 18:37 | 40.85260 | -74.05949 | 9 ft | 16 kts | 46° |
| 2026-05-08 18:37 | 40.85340 | -74.05835 | 10 ft | 15 kts | 51° |
| 2026-05-08 18:37 | 40.85404 | -74.05739 | 12 ft | 14 kts | 49° |
| 2026-05-08 18:37 | 40.85479 | -74.05627 | 12 ft | 18 kts | 47° |
| 2026-05-08 18:38 | 40.85563 | -74.05504 | 16 ft | 18 kts | 48° |
| 2026-05-08 18:38 | 40.85634 | -74.05403 | 14 ft | 14 kts | 47° |
| 2026-05-08 18:38 | 40.85672 | -74.05348 | 14 ft | 7 kts | 47° |
| 2026-05-08 18:38 | 40.85707 | -74.05344 | 14 ft | 6 kts | 324° |
| 2026-05-08 18:39 | 40.85742 | -74.05387 | 14 ft | 8 kts | 315° |
| 2026-05-08 18:39 | 40.85761 | -74.05420 | 14 ft | 5 kts | 280° |
| 2026-05-08 18:39 | 40.85742 | -74.05462 | 14 ft | 10 kts | 227° |
| 2026-05-08 18:39 | 40.85495 | -74.05823 | 12 ft | 102 kts | 230° |
| 2026-05-08 18:40 | 40.84826 | -74.06778 | 171 ft | 175 kts | 233° |
| 2026-05-08 18:40 | 40.83988 | -74.08017 | 1325 ft | 186 kts | 231° |
| 2026-05-08 18:40 | 40.83113 | -74.09372 | 1679 ft | 197 kts | 238° |
| 2026-05-08 18:40 | 40.82527 | -74.11046 | 2794 ft | 204 kts | 253° |
| 2026-05-08 18:41 | 40.82039 | -74.12865 | 3954 ft | 213 kts | 252° |
| 2026-05-08 18:41 | 40.81537 | -74.14701 | 4009 ft | 208 kts | 257° |
| 2026-05-08 18:41 | 40.81364 | -74.16631 | 4015 ft | 224 kts | 269° |
| 2026-05-08 18:41 | 40.81404 | -74.18760 | 4376 ft | 237 kts | 271° |
| 2026-05-08 18:42 | 40.81433 | -74.20913 | 6214 ft | 234 kts | 271° |
| 2026-05-08 18:42 | 40.81471 | -74.23101 | 7758 ft | 251 kts | 271° |
| 2026-05-08 18:42 | 40.81518 | -74.25453 | 8012 ft | 246 kts | 271° |
| 2026-05-08 18:42 | 40.81558 | -74.27687 | 8020 ft | 244 kts | 271° |
| 2026-05-08 18:43 | 40.81495 | -74.29902 | 8018 ft | 238 kts | 268° |
| 2026-05-08 18:43 | 40.81239 | -74.32003 | 7997 ft | 237 kts | 249° |
| 2026-05-08 18:43 | 40.80236 | -74.33768 | 8012 ft | 244 kts | 233° |
| 2026-05-08 18:43 | 40.79147 | -74.35492 | 8010 ft | 244 kts | 236° |
| 2026-05-08 18:44 | 40.78111 | -74.37266 | 8013 ft | 244 kts | 237° |
| 2026-05-08 18:44 | 40.77066 | -74.39036 | 8010 ft | 245 kts | 236° |
| 2026-05-08 18:44 | 40.76009 | -74.40789 | 8012 ft | 243 kts | 236° |
| 2026-05-08 18:44 | 40.74961 | -74.42533 | 8012 ft | 243 kts | 236° |
| 2026-05-08 18:45 | 40.73912 | -74.44302 | 8011 ft | 248 kts | 236° |
| 2026-05-08 18:45 | 40.72830 | -74.46116 | 8014 ft | 255 kts | 236° |
| 2026-05-08 18:45 | 40.71726 | -74.47954 | 8018 ft | 256 kts | 236° |
| 2026-05-08 18:45 | 40.70621 | -74.49794 | 8022 ft | 256 kts | 236° |
| 2026-05-08 18:46 | 40.69517 | -74.51631 | 7985 ft | 255 kts | 236° |
| 2026-05-08 18:46 | 40.68436 | -74.53439 | 7971 ft | 253 kts | 236° |
| 2026-05-08 18:46 | 40.67346 | -74.55261 | 7976 ft | 254 kts | 236° |
| 2026-05-08 18:46 | 40.66246 | -74.57093 | 7972 ft | 255 kts | 236° |
| 2026-05-08 18:47 | 40.65140 | -74.58932 | 7966 ft | 256 kts | 236° |
| 2026-05-08 18:47 | 40.64040 | -74.60758 | 7970 ft | 254 kts | 236° |
| 2026-05-08 18:47 | 40.62947 | -74.62576 | 7968 ft | 253 kts | 235° |
| 2026-05-08 18:47 | 40.61852 | -74.64396 | 7965 ft | 254 kts | 236° |
| 2026-05-08 18:48 | 40.60757 | -74.66219 | 7965 ft | 254 kts | 236° |
| 2026-05-08 18:48 | 40.59678 | -74.68013 | 7962 ft | 253 kts | 235° |
| 2026-05-08 18:48 | 40.58583 | -74.69823 | 7961 ft | 252 kts | 235° |
| 2026-05-08 18:48 | 40.57493 | -74.71630 | 7960 ft | 254 kts | 235° |
| 2026-05-08 18:49 | 40.56394 | -74.73453 | 7961 ft | 254 kts | 235° |
| 2026-05-08 18:49 | 40.55296 | -74.75274 | 7964 ft | 255 kts | 235° |
| 2026-05-08 18:49 | 40.54189 | -74.77106 | 7965 ft | 256 kts | 235° |
| 2026-05-08 18:49 | 40.53085 | -74.78926 | 7962 ft | 253 kts | 235° |
| 2026-05-08 18:50 | 40.51994 | -74.80733 | 7964 ft | 253 kts | 236° |
| 2026-05-08 18:50 | 40.50899 | -74.82544 | 7962 ft | 253 kts | 235° |
| 2026-05-08 18:50 | 40.49799 | -74.84360 | 7963 ft | 254 kts | 235° |
| 2026-05-08 18:50 | 40.48699 | -74.86172 | 7963 ft | 254 kts | 235° |
| 2026-05-08 18:51 | 40.47601 | -74.87983 | 7975 ft | 253 kts | 235° |
| 2026-05-08 18:51 | 40.46518 | -74.89768 | 7971 ft | 253 kts | 235° |
| 2026-05-08 18:51 | 40.45422 | -74.91576 | 7977 ft | 253 kts | 235° |
| 2026-05-08 18:51 | 40.44320 | -74.93392 | 7970 ft | 254 kts | 235° |
| 2026-05-08 18:52 | 40.43218 | -74.95203 | 7970 ft | 254 kts | 235° |
| 2026-05-08 18:52 | 40.42113 | -74.97015 | 7966 ft | 254 kts | 235° |
| 2026-05-08 18:52 | 40.40927 | -74.98741 | 7964 ft | 255 kts | 230° |
| 2026-05-08 18:52 | 40.39707 | -75.00427 | 7967 ft | 254 kts | 231° |
| 2026-05-08 18:53 | 40.38507 | -75.02132 | 7970 ft | 255 kts | 231° |
| 2026-05-08 18:53 | 40.37299 | -75.03830 | 7971 ft | 254 kts | 231° |
| 2026-05-08 18:53 | 40.35997 | -75.05365 | 7966 ft | 260 kts | 217° |
| 2026-05-08 18:53 | 40.34337 | -75.06430 | 7968 ft | 264 kts | 209° |
| 2026-05-08 18:54 | 40.32666 | -75.07359 | 7968 ft | 264 kts | 208° |
| 2026-05-08 18:54 | 40.30966 | -75.08282 | 7616 ft | 255 kts | 208° |
| 2026-05-08 18:54 | 40.29362 | -75.09136 | 7232 ft | 245 kts | 208° |
| 2026-05-08 18:54 | 40.27799 | -75.09963 | 6844 ft | 240 kts | 208° |
| 2026-05-08 18:55 | 40.24747 | -75.11617 | 6073 ft | 233 kts | 207° |
| 2026-05-08 18:55 | 40.23256 | -75.12431 | 5975 ft | 239 kts | 208° |
| 2026-05-08 18:55 | 40.21715 | -75.13279 | 5981 ft | 240 kts | 208° |
| 2026-05-08 18:56 | 40.20209 | -75.14102 | 5983 ft | 236 kts | 208° |
| 2026-05-08 18:56 | 40.18704 | -75.14927 | 5983 ft | 234 kts | 208° |
| 2026-05-08 18:56 | 40.17193 | -75.15748 | 5978 ft | 236 kts | 208° |
| 2026-05-08 18:56 | 40.15679 | -75.16578 | 5980 ft | 236 kts | 208° |
| 2026-05-08 18:57 | 40.14164 | -75.17401 | 5983 ft | 236 kts | 208° |
| 2026-05-08 18:57 | 40.13158 | -75.17951 | 5978 ft | 237 kts | 208° |
| 2026-05-08 18:57 | 40.11124 | -75.19057 | 5975 ft | 237 kts | 208° |
| 2026-05-08 18:57 | 40.09608 | -75.19891 | 5979 ft | 237 kts | 208° |
| 2026-05-08 18:58 | 40.08096 | -75.20714 | 5979 ft | 234 kts | 208° |
| 2026-05-08 18:58 | 40.06611 | -75.21529 | 5978 ft | 235 kts | 208° |
| 2026-05-08 18:58 | 40.05054 | -75.22198 | 5976 ft | 241 kts | 191° |
| 2026-05-08 18:58 | 40.03371 | -75.21804 | 5977 ft | 254 kts | 163° |
| 2026-05-08 18:59 | 40.01763 | -75.20793 | 5982 ft | 258 kts | 158° |
| 2026-05-08 18:59 | 40.00162 | -75.19730 | 6006 ft | 258 kts | 158° |
| 2026-05-08 18:59 | 39.98571 | -75.18661 | 6002 ft | 257 kts | 158° |
| 2026-05-08 18:59 | 39.96980 | -75.17587 | 6003 ft | 258 kts | 158° |
| 2026-05-08 19:00 | 39.95384 | -75.16509 | 5999 ft | 258 kts | 158° |
| 2026-05-08 19:00 | 39.93791 | -75.15434 | 5997 ft | 258 kts | 158° |
| 2026-05-08 19:00 | 39.92184 | -75.14348 | 5824 ft | 264 kts | 158° |
| 2026-05-08 19:00 | 39.90558 | -75.13254 | 5574 ft | 261 kts | 158° |
| 2026-05-08 19:01 | 39.88961 | -75.12179 | 5319 ft | 257 kts | 158° |
| 2026-05-08 19:01 | 39.87400 | -75.11128 | 5076 ft | 255 kts | 158° |
| 2026-05-08 19:01 | 39.85748 | -75.10583 | 4778 ft | 240 kts | 189° |
| 2026-05-08 19:01 | 39.84289 | -75.11349 | 4186 ft | 227 kts | 225° |
| 2026-05-08 19:02 | 39.83560 | -75.13093 | 3995 ft | 214 kts | 254° |
| 2026-05-08 19:02 | 39.83100 | -75.14910 | 3999 ft | 213 kts | 250° |
| 2026-05-08 19:02 | 39.82396 | -75.16647 | 3981 ft | 220 kts | 240° |
| 2026-05-08 19:02 | 39.81499 | -75.18317 | 3766 ft | 227 kts | 237° |
| 2026-05-08 19:03 | 39.80600 | -75.19977 | 3541 ft | 222 kts | 238° |
| 2026-05-08 19:03 | 39.79748 | -75.21611 | 3331 ft | 215 kts | 238° |
| 2026-05-08 19:03 | 39.78902 | -75.23225 | 3122 ft | 217 kts | 239° |
| 2026-05-08 19:03 | 39.78058 | -75.24837 | 2926 ft | 217 kts | 238° |
| 2026-05-08 19:04 | 39.77220 | -75.26437 | 2719 ft | 210 kts | 238° |
| 2026-05-08 19:04 | 39.76412 | -75.27990 | 2568 ft | 204 kts | 239° |
| 2026-05-08 19:04 | 39.75636 | -75.29483 | 2572 ft | 197 kts | 239° |
| 2026-05-08 19:04 | 39.74860 | -75.30920 | 2580 ft | 193 kts | 238° |
| 2026-05-08 19:05 | 39.74095 | -75.32401 | 2571 ft | 201 kts | 240° |
| 2026-05-08 19:05 | 39.73306 | -75.33930 | 2582 ft | 204 kts | 239° |
| 2026-05-08 19:05 | 39.72514 | -75.35433 | 2583 ft | 198 kts | 241° |
| 2026-05-08 19:05 | 39.71973 | -75.37027 | 2569 ft | 189 kts | 258° |
| 2026-05-08 19:06 | 39.71722 | -75.38641 | 2570 ft | 182 kts | 259° |
| 2026-05-08 19:06 | 39.71451 | -75.40234 | 2560 ft | 178 kts | 259° |
| 2026-05-08 19:06 | 39.71209 | -75.41721 | 2572 ft | 162 kts | 258° |
| 2026-05-08 19:06 | 39.70960 | -75.43170 | 2579 ft | 169 kts | 257° |
| 2026-05-08 19:07 | 39.70702 | -75.44656 | 2516 ft | 170 kts | 259° |
| 2026-05-08 19:07 | 39.70468 | -75.46180 | 2296 ft | 173 kts | 260° |
| 2026-05-08 19:07 | 39.70218 | -75.47701 | 2052 ft | 172 kts | 259° |
| 2026-05-08 19:07 | 39.69957 | -75.49205 | 1811 ft | 163 kts | 258° |
| 2026-05-08 19:08 | 39.69731 | -75.50524 | 1578 ft | 141 kts | 258° |
| 2026-05-08 19:08 | 39.69540 | -75.51669 | 1401 ft | 113 kts | 260° |
| 2026-05-08 19:08 | 39.69396 | -75.52565 | 1241 ft | 99 kts | 259° |
| 2026-05-08 19:08 | 39.69250 | -75.53447 | 1089 ft | 102 kts | 259° |
| 2026-05-08 19:09 | 39.69104 | -75.54351 | 957 ft | 105 kts | 258° |
| 2026-05-08 19:09 | 39.68937 | -75.55310 | 793 ft | 111 kts | 255° |
| 2026-05-08 19:09 | 39.68776 | -75.56270 | 634 ft | 105 kts | 257° |
| 2026-05-08 19:09 | 39.68630 | -75.57165 | 474 ft | 101 kts | 257° |
| 2026-05-08 19:10 | 39.68477 | -75.58054 | 339 ft | 101 kts | 257° |
| 2026-05-08 19:10 | 39.68332 | -75.58948 | 204 ft | 101 kts | 256° |
| 2026-05-08 19:10 | 39.68182 | -75.59823 | 86 ft | 91 kts | 256° |
| 2026-05-08 19:10 | 39.68076 | -75.60456 | 74 ft | 46 kts | 257° |
| 2026-05-08 19:11 | 39.68021 | -75.60769 | 72 ft | 31 kts | 259° |
| 2026-05-08 19:11 | 39.67982 | -75.61010 | 77 ft | 25 kts | 257° |
| 2026-05-08 19:11 | 39.67944 | -75.61226 | 77 ft | 24 kts | 257° |
| 2026-05-08 19:11 | 39.67910 | -75.61426 | 76 ft | 22 kts | 257° |
| 2026-05-08 19:12 | 39.67874 | -75.61587 | 74 ft | 10 kts | 228° |
| 2026-05-08 19:12 | 39.67806 | -75.61559 | 77 ft | 14 kts | 132° |
| 2026-05-08 19:12 | 39.67733 | -75.61454 | 78 ft | 17 kts | 134° |
| 2026-05-08 19:12 | 39.67645 | -75.61318 | 75 ft | 22 kts | 129° |
| 2026-05-08 19:13 | 39.67540 | -75.61162 | 76 ft | 23 kts | 129° |
| 2026-05-08 19:13 | 39.67458 | -75.61039 | 76 ft | 14 kts | 129° |
| 2026-05-08 19:13 | 39.67402 | -75.61025 | 77 ft | 9 kts | 216° |
| 2026-05-08 19:13 | 39.67345 | -75.61087 | 77 ft | 11 kts | 212° |
| 2026-05-08 19:14 | 39.67298 | -75.61069 | 74 ft | 8 kts | 131° |
| 2026-05-08 19:14 | 39.67269 | -75.61074 | 76 ft | 0 kts | 232° |